Etusivu
METAR-TAF:

METAR-TAF

Lentoasemat :

Prinsessa Julianan lentoasema

Sint Maarten, Alankomaiden Antillit

Leveyspiiri: 18-03N, Pituuspiiri: 063-07W, korkeus merenpinnasta: 4 m

Tämänhetkinen sää

Tämä raportti tehtiin 44 minuuttia sitten, kello 21.00 UTC
Tuuli 11 kn idästä, vaihdellen koillisen ja kaakon välillä
Lämpötila 29°C
Kosteus 66%
Ilmanpaine 1017 hPa
Näkyvyys 10 km tai enemmän
Muutamia pilviä 1800 ft:n korkeudessa

METAR: TNCM 242100Z 09011KT 050V130 9999 FEW018 29/22 Q1016 A3003 NOSIG

Aika: 17:44 (21:44 UTC)

Sääennuste

Tämä raportti tehtiin 4 tuntia ja 18 minuuttia sitten, kello 17.26 UTC
Ennuste voimassa 24. päivästä klo 18 UTC - 25. päivään klo 18 UTC
Tuuli 12 kn idästä
Näkyvyys: 10 km
Hajanaisia pilviä 2000 ft:n korkeudessa
sadekuuroja näköpiirissä

TAF: TNCM 241726Z 2418/2518 10012KT P6SM VCSH SCT020

Säähavainnot ja -ennusteet yli 4000 lentoasemalta (METAR- ja TAF-raportit).

Käytössä olevat sääasemat on merkitty karttaan keltaisilla ja punaisilla pisteillä.

Aseta hiiri pisteen päälle nähdäksesi sääaseman nimen.

Klikkaa sitten nähdäksesi säähavainnot ja -ennusteet.

Kartan vaihtaminen: klikkaa mustalla rastilla varustettuja vihreitä pisteitä, niin voit zoomata sisään; viivalla varustettua vihreää pistettä, niin voit zoomata ulos tai vihreitä nuolia, niin pääset viereisille kartoille.


METAR-TAF: